Nearby METAR Reports

 

EGQS - Lossiemouth Raf, United Kingdom
Distance from station: NW 60mi, 97km
Updated: 18/06/2019 12:20
Few Clouds
Few Clouds
 Wind from SW
Wind: SW 21 mph , 33 km/h
Temperature: 17°C
Dew Point: 8°C
Humidity: 56%
Barometer: 1006 hPa
Clouds: Few Clouds
Visibility: 6 miles , 10 km
Cloud details: Few Clouds 732 m
2019/06/18 11:20 EGQS 181120Z 23018KT 9999 FEW024CB 17/08 Q1006 NOSIG RMK BLU